KLGB/LGB METAR and TAF weather

Enter ICAO airport designator
Station Type Date Time Source
KLGB METAR 2019/12/07 14:53 UTC NOAA

KLGB 071453Z 00000KT 10SM OVC045 16/13 A3013 RMK AO2 SLP203 T01560128 53009


Station Type Date Time Source
KLGB Decoded METAR 2019/12/07 14:53 UTC NOAA

LONG BEACH AIRPORT, CA, United States (KLGB) 33-49N 118-09W 10M
Dec 07, 2019 - 09:53 AM EST / 2019.12.07 1453 UTC
Wind: Calm:0
Visibility: 10 mile(s):0
Sky conditions: overcast
Temperature: 60.1 F (15.6 C)
Dew Point: 55.0 F (12.8 C)
Relative Humidity: 83%
Pressure (altimeter): 30.13 in. Hg (1020 hPa)
Pressure tendency: 0.03 inches (0.9 hPa) higher than three hours ago
ob: KLGB 071453Z 00000KT 10SM OVC045 16/13 A3013 RMK AO2 SLP203 T01560128 53009
cycle: 15

Station Type Date Time Source
KLGB TAF 2019/12/07 12:48 UTC NOAA

TAF KLGB 071146Z 0712/0812 VRB03KT P6SM BKN050
FM071600 09005KT 6SM -RA BKN025 OVC040
FM072000 17006KT 4SM -RA BR BKN012 OVC025
FM080400 VRB03KT 4SM -SHRA BR SCT008 OVC012

Example: see airport list